Time;durP1;ratioP1;P1;durP2;ratioP2;P2;SDS_P1;SDS_P2;PMS_P1;PMS_P2;Temp;Humidity;BMP_temperature;BMP_pressure;BME280_temperature;BME280_humidity;BME280_pressure;Samples;Min_cycle;Max_cycle;Signal;HPM_P1;HPM_P2
2021/03/28 00:01:14;;;;;;;2.63;2.28;;;8.80;99.90;;;;;;4972438;28;20257;-69
2021/03/28 00:03:44;;;;;;;3.60;2.58;;;8.70;99.90;;;;;;4982469;28;20192;-69
2021/03/28 00:06:21;;;;;;;4.10;3.05;;;8.80;99.90;;;;;;4978727;28;20253;-69
2021/03/28 00:09:05;;;;;;;5.03;2.30;;;8.80;99.90;;;;;;4973266;28;20291;-69
2021/03/28 00:11:33;;;;;;;8.25;3.13;;;8.70;99.90;;;;;;4985438;28;20510;-70
2021/03/28 00:13:59;;;;;;;9.27;3.00;;;8.70;99.90;;;;;;4974100;28;20719;-69
2021/03/28 00:16:30;;;;;;;4.25;3.20;;;8.70;99.90;;;;;;4988439;28;20205;-69
2021/03/28 00:19:05;;;;;;;6.80;2.72;;;8.70;99.90;;;;;;4986427;28;20299;-69
2021/03/28 00:21:34;;;;;;;5.00;2.75;;;8.60;99.90;;;;;;4971844;28;20585;-69
2021/03/28 00:24:15;;;;;;;5.85;2.90;;;8.70;99.90;;;;;;4970633;28;20233;-69
2021/03/28 00:26:44;;;;;;;3.75;2.30;;;8.60;99.90;;;;;;4978371;28;20213;-69
2021/03/28 00:29:15;;;;;;;2.92;2.40;;;8.70;99.90;;;;;;4980811;28;20238;-69
2021/03/28 00:31:56;;;;;;;7.32;2.95;;;8.60;99.90;;;;;;4971548;28;20284;-69
2021/03/28 00:34:27;;;;;;;8.27;3.55;;;8.70;99.90;;;;;;4971330;28;20209;-69
2021/03/28 00:36:57;;;;;;;7.50;2.90;;;8.60;99.90;;;;;;4974437;28;20193;-69
2021/03/28 00:39:41;;;;;;;5.95;2.80;;;8.60;99.90;;;;;;4983497;28;20297;-69
2021/03/28 00:42:12;;;;;;;4.75;2.95;;;8.60;99.90;;;;;;4979076;28;20200;-70
2021/03/28 00:44:47;;;;;;;4.00;2.80;;;8.60;99.90;;;;;;4977939;28;20225;-69
2021/03/28 00:47:20;;;;;;;3.25;2.40;;;8.60;99.90;;;;;;4971055;28;20196;-69
2021/03/28 00:49:58;;;;;;;3.90;2.90;;;8.60;99.90;;;;;;4979033;28;20675;-69
2021/03/28 00:52:29;;;;;;;4.00;2.42;;;8.60;99.90;;;;;;4979628;28;20201;-69
2021/03/28 00:55:01;;;;;;;7.40;3.42;;;8.60;99.90;;;;;;4972635;28;20517;-69
2021/03/28 00:57:32;;;;;;;3.13;2.75;;;8.50;99.90;;;;;;4989235;28;20199;-69
2021/03/28 01:00:13;;;;;;;7.50;3.08;;;8.50;99.90;;;;;;4988427;28;20580;-69
2021/03/28 01:02:53;;;;;;;7.93;3.70;;;8.50;99.90;;;;;;4975667;28;20287;-69
2021/03/28 01:05:33;;;;;;;7.10;2.33;;;8.50;99.90;;;;;;4978370;28;20224;-69
2021/03/28 01:08:09;;;;;;;5.80;2.83;;;8.50;99.90;;;;;;4972597;28;20204;-69
2021/03/28 01:11:12;;;;;;;4.55;3.05;;;8.50;99.90;;;;;;4983933;28;20207;-69
2021/03/28 01:14:01;;;;;;;6.25;2.80;;;8.50;99.90;;;;;;4979693;28;20206;-69
2021/03/28 01:17:05;;;;;;;7.70;3.03;;;8.50;99.90;;;;;;4976773;28;20205;-69
2021/03/28 01:20:01;;;;;;;5.60;2.67;;;8.50;99.90;;;;;;4975586;28;20964;-69
2021/03/28 01:22:40;;;;;;;8.88;3.53;;;8.50;99.90;;;;;;4983956;28;20244;-69
2021/03/28 01:25:19;;;;;;;6.40;3.05;;;8.60;99.90;;;;;;4968021;28;20228;-69
2021/03/28 01:27:52;;;;;;;3.47;2.03;;;8.60;99.90;;;;;;4970414;28;20551;-69
2021/03/28 01:30:22;;;;;;;7.93;2.80;;;8.60;99.90;;;;;;4969035;28;20241;-69
2021/03/28 01:32:58;;;;;;;4.43;2.28;;;8.60;99.90;;;;;;4965097;28;20197;-69
2021/03/28 01:35:30;;;;;;;6.10;2.83;;;8.60;99.90;;;;;;4974830;28;20193;-69
2021/03/28 01:38:05;;;;;;;4.45;2.72;;;8.60;99.90;;;;;;5014881;28;20243;-69
2021/03/28 01:40:43;;;;;;;4.28;2.95;;;8.60;99.90;;;;;;4988113;28;20556;-69
2021/03/28 01:43:20;;;;;;;3.75;2.20;;;8.60;99.90;;;;;;4982127;28;20201;-70
2021/03/28 01:45:52;;;;;;;6.03;2.70;;;8.70;99.90;;;;;;4972299;28;20217;-69
2021/03/28 01:48:38;;;;;;;3.88;2.38;;;8.70;99.90;;;;;;4981003;28;20197;-69
2021/03/28 01:51:27;;;;;;;3.53;2.25;;;8.60;99.90;;;;;;4969307;28;20565;-69
2021/03/28 01:54:02;;;;;;;2.63;2.25;;;8.60;99.90;;;;;;4973402;28;20576;-69
2021/03/28 01:56:34;;;;;;;2.50;2.30;;;8.50;99.90;;;;;;4969981;28;20219;-69
2021/03/28 01:59:16;;;;;;;4.57;2.30;;;8.60;99.90;;;;;;4972806;28;20189;-69
2021/03/28 02:01:51;;;;;;;3.15;2.30;;;8.60;99.90;;;;;;4970528;28;20214;-69
2021/03/28 02:04:33;;;;;;;3.45;2.45;;;8.60;99.90;;;;;;4974455;28;20278;-70
2021/03/28 02:07:21;;;;;;;5.35;2.45;;;8.50;99.90;;;;;;4971245;28;20236;-69
2021/03/28 02:09:55;;;;;;;4.35;2.00;;;8.60;99.90;;;;;;4979159;28;20296;-69
2021/03/28 02:12:34;;;;;;;3.63;2.65;;;8.60;99.90;;;;;;4969611;28;20193;-69
2021/03/28 02:15:32;;;;;;;4.75;2.40;;;8.50;99.90;;;;;;4975362;28;20865;-69
2021/03/28 02:18:18;;;;;;;5.20;2.22;;;8.50;99.90;;;;;;4971491;28;20213;-69
2021/03/28 02:20:53;;;;;;;4.15;2.15;;;8.50;99.90;;;;;;4970347;28;20637;-69
2021/03/28 02:23:42;;;;;;;5.55;2.17;;;8.60;99.90;;;;;;4971244;28;20232;-69
2021/03/28 02:26:31;;;;;;;4.80;2.72;;;8.50;99.90;;;;;;4968127;28;20218;-70
2021/03/28 02:29:13;;;;;;;3.95;2.30;;;8.50;99.90;;;;;;4976274;28;20255;-70
2021/03/28 02:31:54;;;;;;;3.83;2.33;;;8.50;99.90;;;;;;4979297;28;20194;-69
2021/03/28 02:34:27;;;;;;;3.13;2.33;;;8.50;99.90;;;;;;4969134;28;20207;-70
2021/03/28 02:37:07;;;;;;;7.15;2.58;;;8.60;99.90;;;;;;4969878;28;20193;-69
2021/03/28 02:39:42;;;;;;;4.85;2.60;;;8.50;99.90;;;;;;4969905;28;20189;-70
2021/03/28 02:42:18;;;;;;;4.10;1.80;;;8.60;99.90;;;;;;4970114;28;20213;-70
2021/03/28 02:45:17;;;;;;;3.75;2.13;;;8.60;99.90;;;;;;4981565;28;20204;-70
2021/03/28 02:48:09;;;;;;;6.28;2.15;;;8.60;99.90;;;;;;4983674;28;20232;-70
2021/03/28 02:50:54;;;;;;;3.20;1.95;;;8.60;99.90;;;;;;4960011;28;20638;-70
2021/03/28 02:53:28;;;;;;;3.38;1.85;;;8.60;99.90;;;;;;4969082;28;20201;-70
2021/03/28 02:56:21;;;;;;;3.97;2.33;;;8.60;99.90;;;;;;4974446;28;20201;-69
2021/03/28 02:59:02;;;;;;;2.90;2.20;;;8.60;99.90;;;;;;4971531;28;20296;-70
2021/03/28 03:01:53;;;;;;;5.35;2.58;;;8.70;99.90;;;;;;4972495;28;20584;-70
2021/03/28 03:04:42;;;;;;;4.68;2.58;;;8.70;99.90;;;;;;4979360;28;20563;-70
2021/03/28 03:07:29;;;;;;;5.57;2.08;;;8.70;99.90;;;;;;4970536;28;20577;-70
2021/03/28 03:10:13;;;;;;;5.50;2.25;;;8.70;99.90;;;;;;4978576;28;20216;-68
2021/03/28 03:12:49;;;;;;;4.53;2.33;;;8.80;99.90;;;;;;4969520;28;20205;-70
2021/03/28 03:15:24;;;;;;;7.55;4.18;;;8.70;99.90;;;;;;4971422;28;20208;-70
2021/03/28 03:18:31;;;;;;;2.95;2.10;;;8.70;99.90;;;;;;4968362;28;20282;-70
2021/03/28 03:21:24;;;;;;;6.65;2.15;;;8.70;99.90;;;;;;4978377;28;20200;-70
2021/03/28 03:24:27;;;;;;;5.30;2.22;;;8.70;99.90;;;;;;4971012;28;20797;-70
2021/03/28 03:27:23;;;;;;;3.50;2.63;;;8.60;99.90;;;;;;4980288;28;20228;-69
2021/03/28 03:30:28;;;;;;;4.25;1.90;;;8.60;99.90;;;;;;4963604;28;20811;-70
2021/03/28 03:33:18;;;;;;;4.22;1.90;;;8.70;99.90;;;;;;4968796;28;20243;-70
2021/03/28 03:35:50;;;;;;;5.78;2.20;;;8.70;99.90;;;;;;4972748;28;20189;-70
2021/03/28 03:38:50;;;;;;;3.53;1.88;;;8.70;99.90;;;;;;4983085;28;20225;-70
2021/03/28 03:41:41;;;;;;;3.58;2.20;;;8.70;99.90;;;;;;4968494;28;20918;-70
2021/03/28 03:44:18;;;;;;;1.92;1.60;;;8.70;99.90;;;;;;4977497;28;20201;-70
2021/03/28 03:46:59;;;;;;;3.80;1.90;;;8.70;99.90;;;;;;4968301;28;20219;-70
2021/03/28 03:49:50;;;;;;;2.75;1.55;;;8.70;99.90;;;;;;4968254;28;20202;-70
2021/03/28 03:52:34;;;;;;;2.75;1.58;;;8.70;99.90;;;;;;4977375;28;20367;-68
2021/03/28 03:55:07;;;;;;;2.55;1.55;;;8.70;99.90;;;;;;4973949;28;20267;-68
2021/03/28 03:57:41;;;;;;;2.35;1.60;;;8.70;99.90;;;;;;4972549;28;20251;-68
2021/03/28 04:00:16;;;;;;;6.82;2.25;;;8.70;99.90;;;;;;4975183;28;20201;-68
2021/03/28 04:02:52;;;;;;;3.13;1.67;;;8.70;99.90;;;;;;4975417;28;20196;-68
2021/03/28 04:05:34;;;;;;;3.10;1.85;;;8.70;99.90;;;;;;4983544;28;20209;-69
2021/03/28 04:08:15;;;;;;;3.13;2.42;;;8.70;99.90;;;;;;4968390;28;20198;-68
2021/03/28 04:10:50;;;;;;;3.08;1.70;;;8.70;99.90;;;;;;4971241;28;20247;-68
2021/03/28 04:13:54;;;;;;;4.82;2.30;;;8.70;99.90;;;;;;4975264;28;20201;-68
2021/03/28 04:16:31;;;;;;;3.20;2.13;;;8.70;99.90;;;;;;4986349;28;20645;-68
2021/03/28 04:19:19;;;;;;;6.63;1.90;;;8.80;99.90;;;;;;4975987;28;21000;-68
2021/03/28 04:22:16;;;;;;;2.70;1.95;;;8.70;99.90;;;;;;4969207;28;20194;-70
2021/03/28 04:24:50;;;;;;;2.65;1.63;;;8.70;99.90;;;;;;4970127;28;20205;-69
2021/03/28 04:27:38;;;;;;;4.88;2.72;;;8.70;99.90;;;;;;4973839;28;20611;-69
2021/03/28 04:30:07;;;;;;;5.65;2.17;;;8.70;99.90;;;;;;4981675;28;20247;-69
2021/03/28 04:32:47;;;;;;;5.03;1.83;;;8.80;99.90;;;;;;4986061;28;20197;-69
2021/03/28 04:35:39;;;;;;;1.90;1.30;;;8.70;99.90;;;;;;4980274;28;20201;-69
2021/03/28 04:38:33;;;;;;;4.05;1.50;;;8.70;99.90;;;;;;4978694;28;20263;-69
2021/03/28 04:41:31;;;;;;;2.70;1.58;;;8.70;99.90;;;;;;4961227;28;20557;-69
2021/03/28 04:44:33;;;;;;;2.95;1.80;;;8.70;99.90;;;;;;4967275;28;20205;-69
2021/03/28 04:47:38;;;;;;;2.72;1.75;;;8.70;99.90;;;;;;4987368;28;20257;-69
2021/03/28 04:50:41;;;;;;;1.85;1.35;;;8.70;99.90;;;;;;4946477;28;20217;-69
2021/03/28 04:53:50;;;;;;;1.30;1.20;;;8.70;99.90;;;;;;4978228;28;20318;-69
2021/03/28 04:56:47;;;;;;;3.92;1.73;;;8.70;99.90;;;;;;4983864;28;20205;-69
2021/03/28 05:00:02;;;;;;;2.53;1.60;;;8.70;99.90;;;;;;4979244;28;20209;-69
2021/03/28 05:02:51;;;;;;;2.38;1.40;;;8.70;99.90;;;;;;4978316;28;20200;-69
2021/03/28 05:05:37;;;;;;;2.55;1.65;;;8.70;99.90;;;;;;4987138;28;20224;-69
2021/03/28 05:08:36;;;;;;;2.85;1.40;;;8.70;99.90;;;;;;4983319;28;20205;-69
2021/03/28 05:11:30;;;;;;;1.95;1.75;;;8.70;99.90;;;;;;4979245;28;20200;-69
2021/03/28 05:14:20;;;;;;;3.42;1.80;;;8.70;99.90;;;;;;4979073;28;20197;-69
2021/03/28 05:17:09;;;;;;;2.83;2.03;;;8.70;99.90;;;;;;4970426;28;20224;-69
2021/03/28 05:19:57;;;;;;;3.15;1.55;;;8.70;99.90;;;;;;4985030;28;20642;-69
2021/03/28 05:22:49;;;;;;;8.43;2.13;;;8.70;99.90;;;;;;4969991;28;20251;-69
2021/03/28 05:26:01;;;;;;;2.33;1.50;;;8.70;99.90;;;;;;4965302;28;20225;-69
2021/03/28 05:29:02;;;;;;;1.85;1.45;;;8.70;99.90;;;;;;4973541;28;20215;-69
2021/03/28 05:31:52;;;;;;;2.85;1.30;;;8.70;99.90;;;;;;4986857;28;20231;-69
2021/03/28 05:34:39;;;;;;;2.13;1.33;;;8.70;99.90;;;;;;4974991;28;20190;-69
2021/03/28 05:37:25;;;;;;;5.65;1.85;;;8.80;99.90;;;;;;4983222;28;20530;-70
2021/03/28 05:40:16;;;;;;;2.20;1.20;;;8.70;99.90;;;;;;4981570;28;20224;-69
2021/03/28 05:43:15;;;;;;;1.92;1.33;;;8.70;99.90;;;;;;4977430;28;20214;-69
2021/03/28 05:45:55;;;;;;;1.77;1.35;;;8.70;99.90;;;;;;4973905;28;20229;-69
2021/03/28 05:48:40;;;;;;;2.58;1.45;;;8.70;99.90;;;;;;4979829;28;20200;-69
2021/03/28 05:51:40;;;;;;;3.47;1.60;;;8.80;99.90;;;;;;4979262;28;20201;-69
2021/03/28 05:54:40;;;;;;;1.70;1.20;;;8.80;99.90;;;;;;4972130;28;20194;-69
2021/03/28 05:57:38;;;;;;;5.07;1.92;;;8.80;99.90;;;;;;4983162;28;20746;-69
2021/03/28 06:00:37;;;;;;;1.70;1.25;;;8.80;99.90;;;;;;4994579;28;20532;-69
2021/03/28 06:03:32;;;;;;;1.50;1.15;;;8.70;99.90;;;;;;4988349;28;20212;-69
2021/03/28 06:06:42;;;;;;;3.47;1.75;;;8.80;99.90;;;;;;4984117;28;20222;-69
2021/03/28 06:10:01;;;;;;;2.00;1.75;;;8.80;99.90;;;;;;4986528;28;20693;-69
2021/03/28 06:12:56;;;;;;;3.25;1.77;;;8.80;99.90;;;;;;4971149;28;20209;-69
2021/03/28 06:15:59;;;;;;;3.90;1.63;;;8.70;99.90;;;;;;4983879;28;20235;-69
2021/03/28 06:19:10;;;;;;;3.08;1.75;;;8.70;99.90;;;;;;4978380;28;20205;-69
2021/03/28 06:22:22;;;;;;;4.63;1.90;;;8.70;99.90;;;;;;4969692;28;20258;-70
2021/03/28 06:25:27;;;;;;;3.88;1.50;;;8.80;99.90;;;;;;4970009;28;20224;-70
2021/03/28 06:28:21;;;;;;;3.20;1.83;;;8.70;99.90;;;;;;4978854;28;20206;-69
2021/03/28 06:31:24;;;;;;;3.28;2.85;;;8.80;99.90;;;;;;4973454;28;20511;-69
2021/03/28 06:34:23;;;;;;;1.80;1.48;;;8.90;99.90;;;;;;4971178;28;20204;-70
2021/03/28 06:37:27;;;;;;;2.97;1.92;;;8.90;99.90;;;;;;4969192;28;20200;-69
2021/03/28 06:40:08;;;;;;;5.22;1.75;;;8.90;99.90;;;;;;4973278;28;20220;-69
2021/03/28 06:42:59;;;;;;;1.85;1.30;;;8.80;99.90;;;;;;4969259;28;20201;-69
2021/03/28 06:45:43;;;;;;;2.75;2.08;;;9.00;99.90;;;;;;4974945;28;20208;-70
2021/03/28 06:48:42;;;;;;;2.03;1.45;;;8.90;99.90;;;;;;4969292;28;20197;-70
2021/03/28 06:51:31;;;;;;;3.00;1.17;;;8.90;99.90;;;;;;4972670;28;20711;-69
2021/03/28 06:54:46;;;;;;;2.20;1.33;;;9.00;99.90;;;;;;4975676;28;20305;-70
2021/03/28 06:57:54;;;;;;;1.70;1.27;;;9.00;99.90;;;;;;4982721;28;20209;-70
2021/03/28 07:01:00;;;;;;;3.33;1.48;;;9.00;99.90;;;;;;4980872;28;20721;-70
2021/03/28 07:03:48;;;;;;;4.47;1.98;;;9.00;99.90;;;;;;4978667;28;20243;-69
2021/03/28 07:06:22;;;;;;;2.05;1.55;;;9.00;99.90;;;;;;4970057;28;20217;-69
2021/03/28 07:09:15;;;;;;;2.38;1.20;;;9.10;99.90;;;;;;4986240;28;20207;-69
2021/03/28 07:12:01;;;;;;;4.40;1.50;;;9.10;99.90;;;;;;4968486;28;20240;-69
2021/03/28 07:15:10;;;;;;;1.88;1.40;;;9.10;99.90;;;;;;4978236;28;20816;-69
2021/03/28 07:18:03;;;;;;;3.75;1.40;;;9.10;99.90;;;;;;4992169;28;20605;-69
2021/03/28 07:20:58;;;;;;;2.00;1.60;;;9.10;99.90;;;;;;4968736;28;20766;-70
2021/03/28 07:23:55;;;;;;;2.38;1.60;;;9.10;99.90;;;;;;4975934;28;20248;-69
2021/03/28 07:26:39;;;;;;;3.80;1.45;;;9.10;99.90;;;;;;4966109;28;20229;-69
2021/03/28 07:29:52;;;;;;;3.22;1.40;;;9.10;99.90;;;;;;4975389;28;20633;-69
2021/03/28 07:32:34;;;;;;;1.52;1.42;;;9.10;99.90;;;;;;4980364;28;20231;-69
2021/03/28 07:35:38;;;;;;;4.57;1.88;;;9.10;99.90;;;;;;4968843;28;20212;-69
2021/03/28 07:38:45;;;;;;;3.90;1.42;;;9.10;99.90;;;;;;4968608;28;20263;-69
2021/03/28 07:41:41;;;;;;;5.38;1.38;;;9.10;99.90;;;;;;4982553;28;20262;-70
2021/03/28 07:44:43;;;;;;;2.65;1.50;;;9.10;99.90;;;;;;4994987;28;20278;-69
2021/03/28 07:47:48;;;;;;;3.45;1.40;;;9.20;99.90;;;;;;4990883;28;20225;-69
2021/03/28 07:50:41;;;;;;;3.42;1.25;;;9.20;99.90;;;;;;4985040;28;20197;-69
2021/03/28 07:53:56;;;;;;;3.25;1.50;;;9.20;99.90;;;;;;4987700;28;20197;-69
2021/03/28 07:56:42;;;;;;;1.60;1.30;;;9.20;99.90;;;;;;4998565;28;20291;-68
2021/03/28 07:59:16;;;;;;;2.45;1.45;;;9.20;99.90;;;;;;4978507;28;20196;-68
2021/03/28 08:01:51;;;;;;;3.38;1.00;;;9.20;99.90;;;;;;4973293;28;20201;-69
2021/03/28 08:04:45;;;;;;;3.97;1.15;;;9.20;99.90;;;;;;4975647;28;20771;-68
2021/03/28 08:07:37;;;;;;;3.65;1.55;;;9.20;99.90;;;;;;4979399;28;20224;-68
2021/03/28 08:10:45;;;;;;;1.80;1.33;;;9.20;99.90;;;;;;4978205;28;20254;-68
2021/03/28 08:13:50;;;;;;;4.65;1.35;;;9.20;99.90;;;;;;4970171;28;20692;-70
2021/03/28 08:16:56;;;;;;;1.63;1.20;;;9.30;99.90;;;;;;4985746;28;20223;-68
2021/03/28 08:19:37;;;;;;;4.20;1.65;;;9.30;99.90;;;;;;4982779;28;20254;-69
2021/03/28 08:22:15;;;;;;;5.13;1.20;;;9.40;99.90;;;;;;4987024;28;20285;-71
2021/03/28 08:25:17;;;;;;;2.25;1.63;;;9.40;99.90;;;;;;4970683;28;20197;-71
2021/03/28 08:28:08;;;;;;;3.83;1.67;;;9.40;99.90;;;;;;5011665;28;20222;-69
2021/03/28 08:30:48;;;;;;;2.45;1.30;;;9.40;99.90;;;;;;4988785;28;20197;-69
2021/03/28 08:34:01;;;;;;;8.57;2.10;;;9.50;99.90;;;;;;4987824;28;22286;-69
2021/03/28 08:37:01;;;;;;;2.95;1.35;;;9.50;99.90;;;;;;5006475;28;20200;-69
2021/03/28 08:39:54;;;;;;;2.60;1.20;;;9.50;99.90;;;;;;4970561;28;20221;-69
2021/03/28 08:42:49;;;;;;;3.75;1.67;;;9.40;99.90;;;;;;4971229;28;20202;-69
2021/03/28 08:46:11;;;;;;;2.78;1.40;;;9.40;99.90;;;;;;4970578;28;20648;-69
2021/03/28 08:48:47;;;;;;;4.05;1.33;;;9.40;99.90;;;;;;4984200;28;20219;-69
2021/03/28 08:51:38;;;;;;;3.40;1.38;;;9.40;99.90;;;;;;4972178;28;20596;-69
2021/03/28 08:54:11;;;;;;;2.53;1.98;;;9.40;99.90;;;;;;4973456;28;20192;-69
2021/03/28 08:56:59;;;;;;;2.95;1.48;;;9.40;99.90;;;;;;4973167;28;20197;-69
2021/03/28 08:59:37;;;;;;;3.92;1.92;;;9.40;99.90;;;;;;4983037;28;20225;-69
2021/03/28 09:02:46;;;;;;;4.75;1.67;;;9.50;99.90;;;;;;4974386;28;20661;-69
2021/03/28 09:05:19;;;;;;;5.18;1.70;;;9.50;99.90;;;;;;4989750;28;20196;-70
2021/03/28 09:07:58;;;;;;;3.60;1.63;;;9.50;99.90;;;;;;4976312;28;20649;-69
2021/03/28 09:11:00;;;;;;;3.03;1.40;;;9.60;99.90;;;;;;4975064;28;20198;-69
2021/03/28 09:13:43;;;;;;;3.15;1.85;;;9.70;99.90;;;;;;4986086;28;20219;-69
2021/03/28 09:16:15;;;;;;;4.85;1.40;;;9.70;99.90;;;;;;4970127;28;20198;-70
2021/03/28 09:19:06;;;;;;;5.65;2.50;;;9.80;99.90;;;;;;4971238;28;20224;-69
2021/03/28 09:21:44;;;;;;;4.90;2.10;;;9.80;99.90;;;;;;4971130;28;20206;-69
2021/03/28 09:24:37;;;;;;;3.67;1.60;;;10.00;99.90;;;;;;4970349;28;20292;-69
2021/03/28 09:27:34;;;;;;;3.47;1.60;;;10.00;99.90;;;;;;4988926;28;20213;-69
2021/03/28 09:30:25;;;;;;;3.50;1.48;;;10.20;99.90;;;;;;4964296;28;20221;-68
2021/03/28 09:33:17;;;;;;;4.13;1.45;;;10.30;99.90;;;;;;4979115;28;20197;-69
2021/03/28 09:36:28;;;;;;;2.55;1.52;;;10.40;99.90;;;;;;4972124;28;20244;-69
2021/03/28 09:39:19;;;;;;;3.55;1.75;;;10.50;99.90;;;;;;4974021;28;20212;-69
2021/03/28 09:42:12;;;;;;;3.05;1.52;;;10.50;99.90;;;;;;4986161;28;20223;-69
2021/03/28 09:44:55;;;;;;;2.60;1.30;;;10.60;99.90;;;;;;4978845;28;20214;-69
2021/03/28 09:47:33;;;;;;;4.10;1.60;;;10.60;99.90;;;;;;4970885;28;20302;-69
2021/03/28 09:50:13;;;;;;;4.05;1.73;;;10.60;99.90;;;;;;4974356;28;20209;-69
2021/03/28 09:53:04;;;;;;;5.97;2.03;;;10.80;99.90;;;;;;4971359;28;20202;-69
2021/03/28 09:55:42;;;;;;;6.22;1.75;;;10.90;99.90;;;;;;4976499;28;20197;-69
2021/03/28 09:58:34;;;;;;;3.25;1.50;;;11.00;99.90;;;;;;4969487;28;20267;-69
2021/03/28 10:01:36;;;;;;;3.17;1.60;;;11.10;99.90;;;;;;4979819;28;20658;-70
2021/03/28 10:04:11;;;;;;;2.38;1.90;;;11.20;99.90;;;;;;4975390;28;20204;-68
2021/03/28 10:06:38;;;;;;;5.97;1.48;;;11.30;99.90;;;;;;4982475;28;20205;-68
2021/03/28 10:09:17;;;;;;;8.77;1.90;;;11.40;99.90;;;;;;4986062;28;20262;-68
2021/03/28 10:11:50;;;;;;;5.13;1.80;;;11.40;99.90;;;;;;4988616;28;20197;-68
2021/03/28 10:14:25;;;;;;;2.75;1.67;;;11.50;99.90;;;;;;4975167;28;20201;-68
2021/03/28 10:17:09;;;;;;;4.82;1.63;;;11.50;99.90;;;;;;4989052;28;20537;-68
2021/03/28 10:19:39;;;;;;;4.38;1.88;;;11.60;99.90;;;;;;4969068;28;20205;-68
2021/03/28 10:22:16;;;;;;;2.03;1.63;;;11.60;99.90;;;;;;4976203;28;20196;-68
2021/03/28 10:25:15;;;;;;;2.17;1.45;;;11.60;99.90;;;;;;4979320;28;20189;-68
2021/03/28 10:28:11;;;;;;;4.28;1.90;;;11.60;99.90;;;;;;4984961;28;20232;-68
2021/03/28 10:30:48;;;;;;;8.43;2.40;;;11.60;99.90;;;;;;4969412;28;20625;-69
2021/03/28 10:33:30;;;;;;;2.45;1.58;;;11.70;99.90;;;;;;4968571;28;20197;-69
2021/03/28 10:36:10;;;;;;;5.53;2.10;;;11.70;99.90;;;;;;4969493;28;20542;-69
2021/03/28 10:38:54;;;;;;;8.75;1.80;;;11.70;99.90;;;;;;4969299;28;20563;-75
2021/03/28 10:41:46;;;;;;;2.40;1.85;;;11.70;99.90;;;;;;4980899;28;20637;-73
2021/03/28 10:44:26;;;;;;;6.55;1.63;;;11.70;99.90;;;;;;4959832;28;20254;-68
2021/03/28 10:47:23;;;;;;;5.63;1.85;;;11.70;99.90;;;;;;4971916;28;20217;-71
2021/03/28 10:50:25;;;;;;;6.72;2.05;;;11.70;99.90;;;;;;4968401;28;20714;-69
2021/03/28 10:53:37;;;;;;;4.72;2.08;;;11.70;99.90;;;;;;4968845;28;20728;-72
2021/03/28 10:56:26;;;;;;;5.40;2.10;;;11.70;99.90;;;;;;4966433;28;20201;-69
2021/03/28 10:59:28;;;;;;;3.83;1.50;;;11.70;99.90;;;;;;4968236;28;20230;-69
2021/03/28 11:02:33;;;;;;;2.38;1.35;;;11.70;99.90;;;;;;4968742;28;20193;-69
2021/03/28 11:05:27;;;;;;;4.35;1.75;;;11.70;99.90;;;;;;4970907;28;20202;-69
2021/03/28 11:08:06;;;;;;;6.20;1.80;;;11.70;99.90;;;;;;4966720;28;20221;-70
2021/03/28 11:11:02;;;;;;;2.13;1.80;;;11.70;99.90;;;;;;4968730;28;20205;-70
2021/03/28 11:13:59;;;;;;;4.50;1.50;;;11.70;99.90;;;;;;4970251;28;20205;-69
2021/03/28 11:16:40;;;;;;;2.92;1.42;;;11.80;99.90;;;;;;4968705;28;20666;-69
2021/03/28 11:19:43;;;;;;;4.65;1.50;;;11.80;99.90;;;;;;4971667;28;20190;-69
2021/03/28 11:22:18;;;;;;;3.60;1.90;;;11.80;99.90;;;;;;4968288;28;20241;-69
2021/03/28 11:25:00;;;;;;;2.67;1.65;;;11.90;99.90;;;;;;4972641;28;20197;-70
2021/03/28 11:27:58;;;;;;;2.55;1.42;;;11.90;99.90;;;;;;4985529;28;20215;-69
2021/03/28 11:30:35;;;;;;;3.70;1.65;;;11.90;99.90;;;;;;4967707;28;20264;-70
2021/03/28 11:33:10;;;;;;;10.57;2.17;;;11.90;99.90;;;;;;4973177;28;20254;-70
2021/03/28 11:35:40;;;;;;;3.85;1.65;;;12.00;99.90;;;;;;4971686;28;20197;-70
2021/03/28 11:38:33;;;;;;;3.22;1.70;;;12.00;99.90;;;;;;4974674;28;20206;-69
2021/03/28 11:41:40;;;;;;;7.78;1.60;;;12.00;99.90;;;;;;4969144;28;20269;-69
2021/03/28 11:44:22;;;;;;;3.45;1.40;;;12.00;99.90;;;;;;4966831;28;20193;-69
2021/03/28 11:47:10;;;;;;;2.63;1.25;;;12.10;99.90;;;;;;4968171;28;20986;-69
2021/03/28 11:49:53;;;;;;;5.30;1.23;;;12.10;99.90;;;;;;4972830;28;20561;-69
2021/03/28 11:52:28;;;;;;;3.85;1.50;;;12.10;99.90;;;;;;4986540;28;20532;-69
2021/03/28 11:55:09;;;;;;;2.78;1.40;;;12.10;99.90;;;;;;4978404;28;20662;-70
2021/03/28 11:57:36;;;;;;;5.93;2.28;;;12.20;99.90;;;;;;4980299;28;20246;-69
2021/03/28 12:00:42;;;;;;;6.05;1.48;;;12.20;99.90;;;;;;4977700;28;20198;-69
2021/03/28 12:03:37;;;;;;;6.15;2.30;;;12.20;99.90;;;;;;4976685;28;20200;-69
2021/03/28 12:06:24;;;;;;;5.47;1.55;;;12.20;99.90;;;;;;4973932;28;20212;-69
2021/03/28 12:08:58;;;;;;;6.13;2.50;;;12.30;99.90;;;;;;4973200;28;20205;-69
2021/03/28 12:11:35;;;;;;;5.72;1.40;;;12.30;99.90;;;;;;4966760;28;20193;-70
2021/03/28 12:14:16;;;;;;;5.65;1.95;;;12.30;99.60;;;;;;4969486;28;20197;-71
2021/03/28 12:17:17;;;;;;;7.18;2.00;;;12.30;99.60;;;;;;4972246;28;20247;-70
2021/03/28 12:19:54;;;;;;;7.35;1.60;;;12.30;99.80;;;;;;4969308;28;20251;-72
2021/03/28 12:22:25;;;;;;;2.45;1.50;;;12.40;99.90;;;;;;4981833;28;20244;-70
2021/03/28 12:25:03;;;;;;;3.22;2.28;;;12.40;99.90;;;;;;4970880;28;20201;-72
2021/03/28 12:27:40;;;;;;;6.93;1.88;;;12.50;99.80;;;;;;4971554;28;20209;-71
2021/03/28 12:30:33;;;;;;;2.90;2.15;;;12.50;99.80;;;;;;4970879;28;20201;-70
2021/03/28 12:33:07;;;;;;;5.63;1.58;;;12.50;99.10;;;;;;4970736;28;20673;-70
2021/03/28 12:35:53;;;;;;;4.03;2.40;;;12.60;99.50;;;;;;4977407;28;20197;-71
2021/03/28 12:38:46;;;;;;;1.90;1.20;;;12.60;99.30;;;;;;4974404;28;20244;-70
2021/03/28 12:41:24;;;;;;;2.88;1.50;;;12.60;99.00;;;;;;4971323;28;20235;-71
2021/03/28 12:43:56;;;;;;;3.80;1.75;;;12.60;99.10;;;;;;4985398;28;20201;-71
2021/03/28 12:47:01;;;;;;;4.57;1.77;;;12.60;98.90;;;;;;4971923;28;20221;-72
2021/03/28 12:49:31;;;;;;;4.20;3.35;;;12.60;99.10;;;;;;4978545;28;20208;-71
2021/03/28 12:52:15;;;;;;;4.07;2.10;;;12.70;99.40;;;;;;4992892;28;20194;-70
2021/03/28 12:55:16;;;;;;;4.65;2.85;;;12.70;99.50;;;;;;4981935;28;20546;-69
2021/03/28 12:57:45;;;;;;;8.70;2.28;;;12.70;99.30;;;;;;4978143;28;20197;-70
2021/03/28 13:00:34;;;;;;;5.22;1.67;;;12.70;99.40;;;;;;4970774;28;20267;-72
2021/03/28 13:03:12;;;;;;;4.18;1.58;;;12.80;99.00;;;;;;4974919;28;20205;-68
2021/03/28 13:06:04;;;;;;;7.63;1.92;;;12.80;98.90;;;;;;4970516;28;20198;-69
2021/03/28 13:08:32;;;;;;;8.18;1.88;;;12.80;99.10;;;;;;4979029;28;20193;-67
2021/03/28 13:11:00;;;;;;;6.38;2.38;;;12.90;99.10;;;;;;4975477;28;20202;-68
2021/03/28 13:13:28;;;;;;;4.95;1.60;;;12.90;98.90;;;;;;4985471;28;20204;-68
2021/03/28 13:15:57;;;;;;;4.25;2.40;;;12.90;98.80;;;;;;4983762;28;20209;-68
2021/03/28 13:18:26;;;;;;;3.72;2.13;;;12.90;98.90;;;;;;4969767;28;20198;-68
2021/03/28 13:20:55;;;;;;;4.75;2.00;;;12.90;98.50;;;;;;4980422;28;20206;-68
2021/03/28 13:23:29;;;;;;;3.30;1.90;;;12.90;98.50;;;;;;4976821;28;20237;-69
2021/03/28 13:26:20;;;;;;;6.50;2.97;;;12.90;98.60;;;;;;4975475;28;20196;-68
2021/03/28 13:29:02;;;;;;;4.85;1.65;;;12.90;98.70;;;;;;4982048;28;20625;-68
2021/03/28 13:31:43;;;;;;;2.97;1.23;;;13.00;98.50;;;;;;4985260;28;20694;-69
2021/03/28 13:34:52;;;;;;;3.78;2.03;;;12.90;98.40;;;;;;4983221;28;20862;-68
2021/03/28 13:37:35;;;;;;;2.97;1.77;;;13.00;98.20;;;;;;4989704;28;20557;-69
2021/03/28 13:40:05;;;;;;;3.20;1.50;;;13.00;98.20;;;;;;4971160;28;20216;-69
2021/03/28 13:42:36;;;;;;;3.30;1.48;;;13.00;98.30;;;;;;4981240;28;20201;-69
2021/03/28 13:45:08;;;;;;;5.97;1.85;;;13.00;98.00;;;;;;4982181;28;20255;-68
2021/03/28 13:47:47;;;;;;;3.75;1.80;;;13.00;98.10;;;;;;4971085;28;20696;-68
2021/03/28 13:50:49;;;;;;;3.80;2.20;;;13.10;98.20;;;;;;4973576;28;20208;-68
2021/03/28 13:53:36;;;;;;;4.13;1.45;;;13.10;98.00;;;;;;4987389;28;20204;-68
2021/03/28 13:56:27;;;;;;;5.30;2.15;;;13.10;97.60;;;;;;4988724;28;20275;-68
2021/03/28 13:59:04;;;;;;;5.45;1.83;;;13.10;98.10;;;;;;4983866;28;20194;-69
2021/03/28 14:01:35;;;;;;;3.65;1.65;;;13.10;98.30;;;;;;4972297;28;20713;-68
2021/03/28 14:04:19;;;;;;;5.57;1.95;;;13.10;98.00;;;;;;4974994;28;20198;-69
2021/03/28 14:06:47;;;;;;;3.80;2.00;;;13.10;97.70;;;;;;4970172;28;20209;-69
2021/03/28 14:09:19;;;;;;;1.63;1.10;;;13.10;97.70;;;;;;4969836;28;20569;-68
2021/03/28 14:11:57;;;;;;;6.45;2.00;;;13.20;97.70;;;;;;4970359;28;20201;-69
2021/03/28 14:14:28;;;;;;;5.55;1.90;;;13.20;97.60;;;;;;4974678;28;20197;-68
2021/03/28 14:16:57;;;;;;;3.35;1.85;;;13.20;97.50;;;;;;4973685;28;20197;-69
2021/03/28 14:19:32;;;;;;;2.75;1.38;;;13.20;97.10;;;;;;4971958;28;20201;-68
2021/03/28 14:22:12;;;;;;;5.60;1.75;;;13.20;97.20;;;;;;4983373;28;20586;-68
2021/03/28 14:24:41;;;;;;;4.05;1.67;;;13.20;96.70;;;;;;4973416;28;20259;-68
2021/03/28 14:27:16;;;;;;;1.90;1.67;;;13.30;97.00;;;;;;4984559;28;20224;-69
2021/03/28 14:29:46;;;;;;;4.32;1.85;;;13.30;97.40;;;;;;4988381;28;20607;-68
2021/03/28 14:32:26;;;;;;;5.05;1.70;;;13.30;97.00;;;;;;4989043;28;20201;-67